Time;durP1;ratioP1;P1;durP2;ratioP2;P2;SDS_P1;SDS_P2;PMS_P1;PMS_P2;Temp;Humidity;BMP_temperature;BMP_pressure;BME280_temperature;BME280_humidity;BME280_pressure;Samples;Min_cycle;Max_cycle;Signal;HPM_P1;HPM_P2
2022/03/04 00:00:07;;;;;;;16.33;10.20;;;4.00;59.70;;;;;;5018436;28;20467;-42
2022/03/04 00:02:33;;;;;;;16.93;10.20;;;3.90;59.90;;;;;;5017580;28;21560;-42
2022/03/04 00:05:00;;;;;;;16.30;10.23;;;3.90;60.00;;;;;;5017700;28;20590;-42
2022/03/04 00:07:28;;;;;;;15.57;10.33;;;3.80;60.20;;;;;;5016376;28;20523;-42
2022/03/04 00:09:55;;;;;;;14.93;9.90;;;3.80;60.70;;;;;;5020059;28;20554;-42
2022/03/04 00:12:22;;;;;;;17.67;11.00;;;3.70;60.70;;;;;;5018973;28;20452;-42
2022/03/04 00:14:49;;;;;;;14.07;10.83;;;3.70;60.60;;;;;;5015112;28;20498;-42
2022/03/04 00:17:15;;;;;;;16.67;10.90;;;3.70;60.80;;;;;;5015237;28;20828;-42
2022/03/04 00:19:42;;;;;;;16.53;10.63;;;3.60;60.90;;;;;;5012145;28;21364;-42
2022/03/04 00:22:09;;;;;;;14.93;10.77;;;3.60;61.20;;;;;;5019033;28;20538;-42
2022/03/04 00:24:36;;;;;;;18.20;11.87;;;3.50;61.40;;;;;;5014544;28;20555;-42
2022/03/04 00:27:03;;;;;;;17.40;10.67;;;3.50;61.80;;;;;;5014140;28;20961;-42
2022/03/04 00:29:30;;;;;;;16.43;10.33;;;3.40;61.70;;;;;;5035322;28;20567;-42
2022/03/04 00:31:56;;;;;;;17.80;10.90;;;3.40;61.60;;;;;;5020521;28;20475;-42
2022/03/04 00:34:25;;;;;;;16.37;11.00;;;3.30;61.80;;;;;;5019440;28;20843;-42
2022/03/04 00:36:52;;;;;;;19.53;11.63;;;3.30;62.40;;;;;;5019498;28;20452;-42
2022/03/04 00:39:19;;;;;;;15.70;11.13;;;3.30;62.60;;;;;;5015678;28;20532;-42
2022/03/04 00:41:45;;;;;;;18.30;10.93;;;3.30;62.50;;;;;;5017497;28;20512;-42
2022/03/04 00:44:12;;;;;;;16.80;10.43;;;3.30;62.80;;;;;;5007247;28;20459;-42
2022/03/04 00:46:39;;;;;;;16.73;11.07;;;3.30;62.60;;;;;;5011653;28;20993;-42
2022/03/04 00:49:07;;;;;;;19.07;11.07;;;3.20;62.60;;;;;;5016062;28;20456;-42
2022/03/04 00:51:33;;;;;;;14.40;10.80;;;3.10;62.80;;;;;;5014145;28;20535;-42
2022/03/04 00:54:00;;;;;;;19.37;11.80;;;3.10;63.20;;;;;;5020546;28;20483;-42
2022/03/04 00:56:27;;;;;;;19.20;11.93;;;3.10;63.40;;;;;;5014476;28;20531;-42
2022/03/04 00:58:54;;;;;;;17.37;10.73;;;3.10;63.60;;;;;;5018129;28;20454;-42
2022/03/04 01:01:21;;;;;;;16.33;11.70;;;3.10;63.60;;;;;;5021252;28;20500;-42
2022/03/04 01:03:48;;;;;;;18.67;12.00;;;3.10;63.40;;;;;;5017069;28;20984;-42
2022/03/04 01:06:15;;;;;;;16.97;11.57;;;3.10;63.50;;;;;;5001656;28;20489;-42
2022/03/04 01:08:41;;;;;;;18.63;11.10;;;3.10;63.80;;;;;;5015762;28;20522;-42
2022/03/04 01:11:08;;;;;;;16.90;11.30;;;3.00;63.70;;;;;;5003051;28;20490;-42
2022/03/04 01:13:35;;;;;;;17.90;10.50;;;3.00;63.80;;;;;;5007839;28;21034;-42
2022/03/04 01:16:02;;;;;;;15.97;11.27;;;3.00;63.70;;;;;;5023273;28;20470;-42
2022/03/04 01:18:29;;;;;;;18.00;10.70;;;3.00;63.70;;;;;;5021280;28;20891;-42
2022/03/04 01:20:56;;;;;;;16.43;11.73;;;3.00;63.70;;;;;;5019710;28;20876;-42
2022/03/04 01:23:23;;;;;;;19.47;12.27;;;2.90;63.90;;;;;;5008593;28;20464;-42
2022/03/04 01:25:54;;;;;;;16.70;10.87;;;2.90;64.00;;;;;;5020920;28;20546;-42
2022/03/04 01:28:21;;;;;;;17.90;11.90;;;2.90;64.20;;;;;;5008355;28;20466;-42
2022/03/04 01:30:48;;;;;;;18.93;11.77;;;2.90;64.10;;;;;;5020217;28;20474;-42
2022/03/04 01:33:15;;;;;;;17.10;11.83;;;2.90;64.10;;;;;;5005219;28;20907;-42
2022/03/04 01:35:42;;;;;;;20.00;11.87;;;2.80;64.10;;;;;;5019499;28;20452;-42
2022/03/04 01:38:10;;;;;;;20.47;11.97;;;2.80;64.20;;;;;;5028500;28;20823;-42
2022/03/04 01:40:37;;;;;;;16.53;11.93;;;2.80;64.40;;;;;;5020820;28;20843;-42
2022/03/04 01:43:04;;;;;;;18.27;11.07;;;2.70;64.40;;;;;;5034415;28;20561;-42
2022/03/04 01:45:31;;;;;;;21.30;12.50;;;2.70;64.60;;;;;;5007539;28;21098;-42
2022/03/04 01:47:57;;;;;;;16.07;11.30;;;2.70;64.50;;;;;;5024435;28;20565;-42
2022/03/04 01:50:25;;;;;;;15.73;11.00;;;2.70;64.60;;;;;;5020211;28;20495;-42
2022/03/04 01:52:52;;;;;;;22.40;11.50;;;2.70;64.60;;;;;;5022292;28;20986;-42
2022/03/04 01:55:19;;;;;;;18.77;12.07;;;2.60;64.50;;;;;;5022430;28;20491;-42
2022/03/04 01:57:46;;;;;;;21.27;12.00;;;2.60;64.60;;;;;;5019666;28;21204;-42
2022/03/04 02:00:14;;;;;;;18.63;11.77;;;2.60;64.80;;;;;;5009222;28;20725;-42
2022/03/04 02:02:43;;;;;;;22.97;12.43;;;2.50;64.80;;;;;;5020488;28;20548;-42
2022/03/04 02:05:15;;;;;;;20.13;11.90;;;2.50;65.40;;;;;;5006132;28;20467;-42
2022/03/04 02:07:42;;;;;;;15.70;11.23;;;2.50;65.60;;;;;;5015940;28;20459;-42
2022/03/04 02:10:10;;;;;;;17.63;11.70;;;2.50;65.50;;;;;;5035893;28;20566;-42
2022/03/04 02:12:37;;;;;;;16.77;10.87;;;2.40;65.50;;;;;;5019064;28;20474;-42
2022/03/04 02:15:05;;;;;;;20.43;12.60;;;2.40;65.50;;;;;;5016209;28;21000;-42
2022/03/04 02:17:32;;;;;;;17.00;11.33;;;2.50;65.70;;;;;;5000118;28;20540;-42
2022/03/04 02:19:59;;;;;;;18.40;14.33;;;2.50;65.70;;;;;;5006140;28;20511;-42
2022/03/04 02:22:26;;;;;;;18.40;11.53;;;2.40;65.70;;;;;;5010217;28;20964;-42
2022/03/04 02:24:53;;;;;;;20.70;12.60;;;2.40;65.90;;;;;;5021375;28;20491;-42
2022/03/04 02:27:20;;;;;;;15.87;10.57;;;2.40;65.80;;;;;;5017074;28;20478;-42
2022/03/04 02:29:46;;;;;;;16.90;11.90;;;2.40;65.70;;;;;;4994335;28;20550;-42
2022/03/04 02:32:13;;;;;;;16.80;11.30;;;2.40;65.70;;;;;;5020033;28;20486;-42
2022/03/04 02:34:40;;;;;;;19.43;12.93;;;2.40;65.70;;;;;;5019489;28;20488;-42
2022/03/04 02:37:08;;;;;;;20.20;13.10;;;2.40;65.60;;;;;;5019109;28;20554;-42
2022/03/04 02:39:35;;;;;;;20.00;13.03;;;2.40;65.60;;;;;;5017577;28;20896;-42
2022/03/04 02:42:02;;;;;;;16.60;12.07;;;2.40;65.60;;;;;;5007167;28;20559;-41
2022/03/04 02:44:28;;;;;;;18.90;11.90;;;2.40;65.70;;;;;;5002523;28;21085;-42
2022/03/04 02:46:55;;;;;;;19.57;12.57;;;2.40;65.70;;;;;;5019967;28;20478;-42
2022/03/04 02:49:22;;;;;;;18.30;12.27;;;2.30;65.80;;;;;;5020185;28;21231;-42
2022/03/04 02:51:49;;;;;;;19.97;13.27;;;2.30;65.90;;;;;;5015588;28;21048;-42
2022/03/04 02:54:15;;;;;;;16.57;11.93;;;2.20;66.00;;;;;;5017270;28;20591;-41
2022/03/04 02:56:42;;;;;;;18.40;12.50;;;2.20;66.30;;;;;;5005518;28;20480;-41
2022/03/04 02:59:09;;;;;;;17.97;11.37;;;2.20;66.40;;;;;;5000749;28;20541;-41
2022/03/04 03:01:36;;;;;;;15.77;11.80;;;2.20;66.40;;;;;;5019673;28;20996;-42
2022/03/04 03:04:03;;;;;;;19.87;13.27;;;2.10;66.40;;;;;;5017314;28;20460;-42
2022/03/04 03:06:30;;;;;;;17.03;13.03;;;2.10;66.50;;;;;;4976797;28;1122888;-42
2022/03/04 03:08:57;;;;;;;18.20;11.70;;;2.10;66.70;;;;;;5017511;28;20303;-42
2022/03/04 03:11:23;;;;;;;19.17;13.60;;;2.10;66.90;;;;;;5017363;28;21012;-42
2022/03/04 03:13:50;;;;;;;15.17;12.10;;;2.00;67.00;;;;;;5017451;28;21026;-42
2022/03/04 03:16:17;;;;;;;20.70;13.43;;;2.10;67.10;;;;;;5022904;28;20463;-42
2022/03/04 03:18:44;;;;;;;16.60;11.07;;;2.00;67.00;;;;;;5018821;28;20559;-42
2022/03/04 03:21:11;;;;;;;22.80;12.83;;;2.00;66.90;;;;;;5020412;28;20463;-42
2022/03/04 03:23:38;;;;;;;17.60;12.43;;;2.00;67.30;;;;;;5019120;28;20470;-42
2022/03/04 03:26:05;;;;;;;24.00;13.70;;;2.00;67.20;;;;;;5019158;28;20456;-43
2022/03/04 03:28:31;;;;;;;15.33;10.77;;;2.00;67.10;;;;;;5019016;28;20463;-42
2022/03/04 03:30:59;;;;;;;20.30;13.57;;;2.00;67.10;;;;;;5018892;28;20457;-42
2022/03/04 03:33:26;;;;;;;21.00;11.93;;;2.00;67.10;;;;;;5019851;28;20874;-43
2022/03/04 03:35:54;;;;;;;18.40;12.80;;;2.00;67.20;;;;;;5017400;28;20464;-43
2022/03/04 03:38:22;;;;;;;15.47;11.67;;;2.00;67.10;;;;;;5006941;28;21060;-42
2022/03/04 03:40:50;;;;;;;15.80;12.63;;;2.00;66.90;;;;;;5022330;28;20470;-42
2022/03/04 03:43:36;;;;;;;16.47;11.27;;;2.00;66.90;;;;;;5029907;28;20456;-43
2022/03/04 03:46:03;;;;;;;21.60;13.03;;;1.90;66.90;;;;;;5017934;28;20464;-43
2022/03/04 03:48:30;;;;;;;21.30;14.00;;;1.90;66.90;;;;;;4986811;28;20470;-43
2022/03/04 03:50:57;;;;;;;18.40;12.10;;;1.80;67.20;;;;;;5017525;28;20499;-42
2022/03/04 03:53:24;;;;;;;18.07;11.80;;;1.80;67.20;;;;;;5008647;28;20462;-42
2022/03/04 03:55:51;;;;;;;19.60;12.23;;;1.70;67.40;;;;;;5016687;28;20874;-42
2022/03/04 03:58:17;;;;;;;22.00;15.50;;;1.70;67.60;;;;;;5017381;28;20464;-42
2022/03/04 04:00:44;;;;;;;24.30;13.23;;;1.70;67.80;;;;;;5023803;28;20479;-42
2022/03/04 04:03:11;;;;;;;23.00;13.80;;;1.70;68.00;;;;;;5004122;28;20960;-42
2022/03/04 04:05:38;;;;;;;23.33;12.70;;;1.60;67.80;;;;;;5017005;28;20532;-42
2022/03/04 04:08:05;;;;;;;19.43;12.20;;;1.60;67.90;;;;;;5020381;28;20460;-42
2022/03/04 04:10:32;;;;;;;18.07;12.73;;;1.60;68.20;;;;;;5018682;28;20546;-42
2022/03/04 04:12:59;;;;;;;23.30;13.17;;;1.50;68.20;;;;;;5020552;28;20459;-42
2022/03/04 04:15:25;;;;;;;24.90;13.90;;;1.50;68.20;;;;;;5022265;28;20481;-42
2022/03/04 04:17:52;;;;;;;16.10;11.97;;;1.50;68.30;;;;;;5017797;28;20496;-42
2022/03/04 04:20:19;;;;;;;24.00;14.23;;;1.50;68.50;;;;;;5005804;28;20464;-42
2022/03/04 04:22:46;;;;;;;18.07;13.60;;;1.50;68.70;;;;;;5019233;28;20460;-42
2022/03/04 04:25:12;;;;;;;21.83;14.70;;;1.50;68.70;;;;;;5013487;28;20464;-42
2022/03/04 04:27:39;;;;;;;20.37;13.70;;;1.50;68.80;;;;;;5017356;28;20837;-42
2022/03/04 04:30:06;;;;;;;21.63;13.67;;;1.50;68.80;;;;;;5019575;28;20471;-43
2022/03/04 04:32:34;;;;;;;22.67;14.07;;;1.50;68.80;;;;;;5020986;28;20463;-43
2022/03/04 04:35:00;;;;;;;22.90;14.37;;;1.60;68.80;;;;;;5021202;28;20488;-43
2022/03/04 04:37:27;;;;;;;22.50;15.77;;;1.60;68.80;;;;;;5000254;28;21250;-43
2022/03/04 04:39:54;;;;;;;26.20;14.93;;;1.60;68.80;;;;;;5016066;28;20460;-43
2022/03/04 04:42:21;;;;;;;24.83;16.00;;;1.60;68.50;;;;;;5015533;28;20542;-42
2022/03/04 04:44:47;;;;;;;24.30;15.70;;;1.70;68.60;;;;;;5018137;28;20459;-43
2022/03/04 04:47:14;;;;;;;24.10;15.60;;;1.70;68.50;;;;;;5019849;28;20482;-43
2022/03/04 04:49:41;;;;;;;24.07;16.20;;;1.80;68.40;;;;;;4999860;28;20470;-43
2022/03/04 04:52:08;;;;;;;22.17;15.73;;;1.80;68.30;;;;;;5001184;28;20473;-43
2022/03/04 04:54:36;;;;;;;24.57;16.60;;;1.80;68.20;;;;;;5021240;28;20502;-42
2022/03/04 04:57:03;;;;;;;23.97;14.57;;;1.80;68.10;;;;;;5032976;28;20472;-42
2022/03/04 04:59:31;;;;;;;23.70;15.17;;;1.90;68.10;;;;;;5014757;28;20487;-42
2022/03/04 05:01:58;;;;;;;22.47;14.30;;;2.00;67.70;;;;;;5016549;28;20463;-42
2022/03/04 05:04:25;;;;;;;23.70;15.83;;;2.00;67.70;;;;;;5017319;28;20501;-42
2022/03/04 05:06:52;;;;;;;23.50;15.53;;;2.00;67.60;;;;;;5017785;28;20569;-42
2022/03/04 05:09:19;;;;;;;23.70;15.60;;;2.00;67.50;;;;;;5007568;28;20632;-42
2022/03/04 05:11:45;;;;;;;25.13;15.87;;;2.00;67.70;;;;;;5002609;28;20461;-42
2022/03/04 05:14:12;;;;;;;24.97;15.70;;;2.00;67.70;;;;;;5016222;28;20460;-42
2022/03/04 05:16:39;;;;;;;21.03;14.97;;;2.00;67.70;;;;;;5017002;28;20466;-42
2022/03/04 05:19:06;;;;;;;26.87;15.50;;;2.00;67.60;;;;;;5017824;28;20461;-42
2022/03/04 05:21:33;;;;;;;24.80;16.87;;;2.00;67.50;;;;;;5015308;28;20832;-42
2022/03/04 05:24:00;;;;;;;27.63;17.80;;;2.00;67.60;;;;;;5017756;28;20474;-42
2022/03/04 05:26:37;;;;;;;23.90;14.33;;;2.00;67.50;;;;;;5016884;28;21060;-42
2022/03/04 05:29:09;;;;;;;23.20;13.93;;;2.00;67.60;;;;;;5017780;28;20455;-42
2022/03/04 05:31:37;;;;;;;25.87;16.17;;;2.00;67.60;;;;;;5016183;28;21011;-42
2022/03/04 05:34:06;;;;;;;24.10;15.50;;;2.00;67.70;;;;;;5016365;28;20472;-42
2022/03/04 05:36:34;;;;;;;21.63;14.63;;;2.00;67.70;;;;;;5016368;28;20458;-42
2022/03/04 05:39:01;;;;;;;25.77;16.30;;;1.90;67.70;;;;;;4996514;28;20462;-42
2022/03/04 05:41:28;;;;;;;24.00;15.73;;;2.00;67.80;;;;;;5016501;28;21146;-42
2022/03/04 05:43:55;;;;;;;27.23;16.43;;;1.90;67.70;;;;;;5016940;28;20520;-42
2022/03/04 05:46:22;;;;;;;25.63;16.63;;;1.90;67.80;;;;;;5014077;28;20990;-42
2022/03/04 05:48:49;;;;;;;20.43;15.00;;;1.90;67.80;;;;;;5030494;28;20523;-42
2022/03/04 05:51:16;;;;;;;27.40;15.50;;;1.90;68.00;;;;;;5007690;28;20468;-42
2022/03/04 05:53:43;;;;;;;25.83;16.87;;;1.90;68.00;;;;;;5017769;28;20915;-42
2022/03/04 05:56:10;;;;;;;28.20;15.30;;;1.90;68.00;;;;;;5020753;28;20495;-42
2022/03/04 05:58:37;;;;;;;25.20;18.23;;;1.80;68.10;;;;;;5031838;28;20456;-42
2022/03/04 06:01:08;;;;;;;21.90;15.53;;;1.80;68.10;;;;;;5017471;28;20467;-42
2022/03/04 06:03:36;;;;;;;28.23;17.83;;;1.80;68.10;;;;;;5020703;28;20496;-42
2022/03/04 06:06:04;;;;;;;22.80;16.90;;;1.80;68.20;;;;;;5004404;28;20459;-42
2022/03/04 06:08:31;;;;;;;25.17;17.07;;;1.80;68.20;;;;;;5005281;28;20558;-42
2022/03/04 06:10:58;;;;;;;26.97;16.67;;;1.80;68.30;;;;;;5017462;28;20964;-42
2022/03/04 06:13:25;;;;;;;26.57;16.17;;;1.80;68.30;;;;;;5019555;28;20550;-42
2022/03/04 06:15:52;;;;;;;21.70;15.37;;;1.80;68.40;;;;;;5019820;28;20493;-42
2022/03/04 06:18:19;;;;;;;21.97;15.90;;;1.80;68.40;;;;;;5021624;28;20449;-42
2022/03/04 06:20:46;;;;;;;25.63;16.93;;;1.80;68.50;;;;;;5016862;28;20945;-41
2022/03/04 06:23:13;;;;;;;26.40;17.20;;;1.80;68.50;;;;;;5005583;28;20452;-41
2022/03/04 06:25:40;;;;;;;25.60;15.63;;;1.80;68.60;;;;;;5019951;28;20475;-42
2022/03/04 06:28:07;;;;;;;27.93;17.23;;;1.80;68.70;;;;;;5014668;28;20448;-42
2022/03/04 06:30:38;;;;;;;28.07;17.07;;;1.80;68.70;;;;;;5006532;28;20583;-42
2022/03/04 06:35:54;;;;;;;25.30;14.57;;;1.80;68.90;;;;;;5026072;28;20575;-42
2022/03/04 06:38:21;;;;;;;22.97;15.00;;;1.80;69.00;;;;;;5019720;28;21016;-42
2022/03/04 06:40:49;;;;;;;25.47;18.07;;;1.80;69.00;;;;;;5022157;28;20503;-42
2022/03/04 06:43:17;;;;;;;25.97;16.60;;;1.80;69.00;;;;;;5008116;28;20893;-42
2022/03/04 06:45:46;;;;;;;25.83;16.10;;;1.80;69.10;;;;;;5019301;28;20941;-42
2022/03/04 06:48:14;;;;;;;23.93;14.63;;;1.80;69.20;;;;;;5004101;28;20468;-43
2022/03/04 06:50:42;;;;;;;20.30;14.30;;;1.80;69.30;;;;;;5007022;28;20536;-43
2022/03/04 06:53:09;;;;;;;24.13;16.40;;;1.80;69.40;;;;;;5018950;28;20468;-42
2022/03/04 06:55:35;;;;;;;25.67;16.23;;;1.90;69.40;;;;;;5018026;28;20925;-42
2022/03/04 06:58:02;;;;;;;28.70;16.90;;;1.80;69.40;;;;;;5017628;28;20457;-42
2022/03/04 07:00:29;;;;;;;29.30;16.13;;;1.90;69.50;;;;;;5021765;28;20459;-42
2022/03/04 07:02:57;;;;;;;24.43;16.87;;;1.90;69.70;;;;;;5021010;28;20454;-42
2022/03/04 07:05:25;;;;;;;26.90;16.60;;;1.90;69.70;;;;;;5037834;28;20563;-42
2022/03/04 07:07:53;;;;;;;28.43;15.10;;;2.00;69.60;;;;;;5022314;28;20465;-42
2022/03/04 07:10:20;;;;;;;32.30;17.33;;;2.10;69.50;;;;;;5016831;28;20459;-42
2022/03/04 07:12:48;;;;;;;24.73;16.90;;;2.10;69.50;;;;;;5017571;28;20467;-42
2022/03/04 07:15:15;;;;;;;28.40;16.40;;;2.10;69.60;;;;;;5000815;28;20538;-42
2022/03/04 07:17:44;;;;;;;25.03;16.80;;;2.10;69.40;;;;;;5004363;28;20848;-42
2022/03/04 07:20:12;;;;;;;26.73;17.67;;;2.20;69.30;;;;;;5021468;28;20466;-43
2022/03/04 07:22:40;;;;;;;26.90;15.23;;;2.30;69.20;;;;;;5019901;28;20513;-44
2022/03/04 07:25:09;;;;;;;24.37;15.70;;;2.30;69.10;;;;;;5016179;28;20471;-44
2022/03/04 07:27:38;;;;;;;25.13;16.87;;;2.40;68.90;;;;;;5019815;28;20459;-45
2022/03/04 07:30:16;;;;;;;26.90;16.50;;;2.50;68.70;;;;;;5020378;28;20469;-43
2022/03/04 07:32:49;;;;;;;27.90;18.37;;;2.60;68.50;;;;;;5016572;28;20547;-44
2022/03/04 07:35:16;;;;;;;31.53;18.30;;;2.60;68.60;;;;;;5034761;28;20506;-43
2022/03/04 07:37:46;;;;;;;29.10;18.17;;;2.70;68.60;;;;;;5015376;28;20459;-43
2022/03/04 07:40:17;;;;;;;28.27;16.43;;;2.70;68.60;;;;;;5018304;28;20473;-43
2022/03/04 07:42:44;;;;;;;26.63;17.23;;;2.80;68.40;;;;;;5017181;28;20509;-43
2022/03/04 07:45:12;;;;;;;22.20;15.60;;;2.80;68.40;;;;;;5020432;28;20523;-43
2022/03/04 07:47:41;;;;;;;27.00;18.30;;;2.90;68.10;;;;;;5033166;28;20550;-43
2022/03/04 07:50:11;;;;;;;29.63;18.00;;;3.00;67.90;;;;;;5022155;28;20463;-43
2022/03/04 07:52:39;;;;;;;24.37;17.10;;;3.10;67.80;;;;;;5004830;28;20459;-42
2022/03/04 07:55:14;;;;;;;30.17;18.00;;;3.10;67.70;;;;;;5022589;28;20493;-42
2022/03/04 07:57:42;;;;;;;26.80;16.77;;;3.20;67.20;;;;;;5020458;28;20964;-42
2022/03/04 08:00:13;;;;;;;35.93;20.00;;;3.30;66.90;;;;;;5003307;28;20483;-43
2022/03/04 08:02:41;;;;;;;30.07;19.30;;;3.40;67.00;;;;;;5017076;28;20551;-42
2022/03/04 08:05:09;;;;;;;33.37;18.20;;;3.50;66.70;;;;;;5019354;28;20467;-41
2022/03/04 08:07:37;;;;;;;29.67;18.10;;;3.60;66.50;;;;;;5011891;28;20469;-41
2022/03/04 08:10:07;;;;;;;27.10;17.10;;;3.60;66.00;;;;;;5014960;28;20460;-41
2022/03/04 08:12:34;;;;;;;29.17;18.73;;;3.70;65.90;;;;;;5020392;28;20464;-41
2022/03/04 08:15:01;;;;;;;30.70;20.37;;;3.80;65.70;;;;;;5034435;28;20574;-41
2022/03/04 08:17:30;;;;;;;36.47;20.87;;;3.90;65.40;;;;;;5014665;28;20525;-41
2022/03/04 08:19:57;;;;;;;29.63;19.33;;;4.10;65.00;;;;;;5003955;28;20458;-41
2022/03/04 08:22:23;;;;;;;33.30;20.50;;;4.20;64.90;;;;;;5015958;28;20837;-41
2022/03/04 08:24:53;;;;;;;34.53;21.47;;;4.40;64.50;;;;;;5017265;28;20462;-41
2022/03/04 08:27:20;;;;;;;32.83;20.10;;;4.50;63.80;;;;;;5020988;28;20577;-41
2022/03/04 08:29:46;;;;;;;31.90;19.57;;;4.60;63.30;;;;;;5014947;28;20471;-41
2022/03/04 08:32:13;;;;;;;35.67;21.10;;;4.70;63.00;;;;;;5031135;28;20458;-41
2022/03/04 08:34:40;;;;;;;28.67;21.40;;;4.90;62.70;;;;;;5019601;28;20463;-41
2022/03/04 08:37:07;;;;;;;35.30;21.70;;;5.00;62.20;;;;;;5001933;28;21132;-41
2022/03/04 08:39:34;;;;;;;34.33;23.27;;;5.10;61.50;;;;;;5001450;28;20448;-41
2022/03/04 08:42:06;;;;;;;32.57;20.00;;;5.30;61.30;;;;;;5015458;28;20633;-41
2022/03/04 08:44:33;;;;;;;33.87;22.37;;;5.30;60.30;;;;;;5016723;28;20464;-41
2022/03/04 08:46:59;;;;;;;41.07;23.20;;;5.40;60.40;;;;;;5018371;28;20484;-41
2022/03/04 08:49:26;;;;;;;34.80;21.10;;;5.50;59.80;;;;;;5021695;28;21000;-41
2022/03/04 08:51:53;;;;;;;32.43;22.10;;;5.60;59.50;;;;;;5019897;28;20462;-41
2022/03/04 08:54:19;;;;;;;34.90;22.70;;;5.80;59.40;;;;;;5020929;28;20964;-41
2022/03/04 08:56:46;;;;;;;35.67;23.43;;;5.90;59.60;;;;;;5017923;28;20490;-41
2022/03/04 08:59:13;;;;;;;34.13;22.40;;;6.00;59.10;;;;;;4999303;28;20459;-41
2022/03/04 09:01:40;;;;;;;34.40;21.50;;;6.00;58.10;;;;;;5005132;28;21067;-42
2022/03/04 09:04:07;;;;;;;36.50;22.00;;;6.00;58.20;;;;;;5018842;28;20466;-42
2022/03/04 09:06:34;;;;;;;38.70;23.37;;;6.00;58.40;;;;;;5032736;28;20464;-42
2022/03/04 09:09:00;;;;;;;34.40;22.53;;;6.00;58.30;;;;;;5016611;28;20464;-42
2022/03/04 09:11:27;;;;;;;32.53;21.53;;;6.00;58.30;;;;;;5015737;28;20486;-42
2022/03/04 09:13:54;;;;;;;32.03;22.60;;;6.00;58.40;;;;;;5017149;28;20451;-42
2022/03/04 09:16:21;;;;;;;26.17;20.03;;;5.90;58.50;;;;;;5016746;28;20486;-42
2022/03/04 09:18:48;;;;;;;31.00;21.53;;;6.00;58.40;;;;;;5001481;28;20491;-41
2022/03/04 09:21:14;;;;;;;35.63;23.33;;;6.00;58.50;;;;;;5016059;28;20828;-41
2022/03/04 09:23:41;;;;;;;33.00;22.57;;;6.10;58.60;;;;;;4997900;28;20483;-41
2022/03/04 09:26:08;;;;;;;31.17;20.60;;;6.10;58.50;;;;;;4997610;28;20586;-41
2022/03/04 09:28:35;;;;;;;38.47;22.83;;;6.10;58.30;;;;;;5033165;28;20460;-41
2022/03/04 09:31:08;;;;;;;36.50;23.47;;;6.20;58.40;;;;;;5017533;28;20524;-41
2022/03/04 09:33:35;;;;;;;32.87;22.13;;;6.20;58.10;;;;;;5017694;28;20467;-41
2022/03/04 09:36:03;;;;;;;36.83;22.87;;;6.20;58.50;;;;;;5036535;28;20571;-41
2022/03/04 09:38:29;;;;;;;34.73;23.30;;;6.30;57.70;;;;;;5022397;28;20488;-41
2022/03/04 09:40:58;;;;;;;29.93;22.00;;;6.30;57.60;;;;;;5023779;28;20464;-41
2022/03/04 09:43:25;;;;;;;36.83;22.50;;;6.30;58.10;;;;;;5023245;28;20467;-41
2022/03/04 09:45:52;;;;;;;33.10;21.43;;;6.50;58.50;;;;;;5006288;28;21292;-41
2022/03/04 09:48:19;;;;;;;32.97;22.90;;;6.50;58.20;;;;;;5023349;28;20964;-41
2022/03/04 09:50:47;;;;;;;32.47;20.90;;;6.60;57.00;;;;;;5024609;28;20443;-41
2022/03/04 09:53:16;;;;;;;28.33;21.40;;;6.70;57.00;;;;;;5021328;28;20450;-41
2022/03/04 09:55:43;;;;;;;33.83;22.17;;;6.80;57.10;;;;;;5022387;28;20491;-41
2022/03/04 09:58:17;;;;;;;30.97;21.30;;;6.80;56.50;;;;;;5023504;28;20990;-41
2022/03/04 10:00:46;;;;;;;32.07;21.27;;;6.90;56.30;;;;;;5023173;28;20473;-41
2022/03/04 10:03:20;;;;;;;37.43;22.63;;;7.00;55.80;;;;;;5021453;28;20526;-42
2022/03/04 10:05:54;;;;;;;33.67;20.57;;;7.10;55.60;;;;;;5021976;28;20464;-41
2022/03/04 10:08:22;;;;;;;31.93;21.60;;;7.20;54.90;;;;;;5019994;28;20460;-41
2022/03/04 10:10:51;;;;;;;32.10;20.63;;;7.30;54.40;;;;;;5020889;28;20447;-41
2022/03/04 10:13:38;;;;;;;32.20;21.83;;;7.40;54.30;;;;;;5020579;28;20452;-41
2022/03/04 10:16:05;;;;;;;31.90;20.50;;;7.50;54.30;;;;;;5021988;28;20528;-41
2022/03/04 10:18:32;;;;;;;38.20;24.20;;;7.80;54.30;;;;;;5023201;28;20875;-41
2022/03/04 10:20:59;;;;;;;32.77;22.50;;;8.00;54.20;;;;;;5023687;28;20452;-41
2022/03/04 10:23:27;;;;;;;34.70;23.37;;;8.20;52.80;;;;;;5020785;28;20447;-41
2022/03/04 10:25:59;;;;;;;32.90;22.03;;;8.40;52.10;;;;;;5006848;28;20468;-41
2022/03/04 10:28:28;;;;;;;30.90;19.70;;;8.60;52.40;;;;;;5019967;28;20563;-41
2022/03/04 10:30:57;;;;;;;31.77;21.33;;;9.00;52.30;;;;;;5025336;28;20947;-41
2022/03/04 10:33:44;;;;;;;30.60;23.20;;;9.40;51.30;;;;;;5020815;28;20444;-42
2022/03/04 10:36:12;;;;;;;33.03;22.30;;;9.60;51.00;;;;;;5022916;28;20487;-42
2022/03/04 10:38:40;;;;;;;32.70;22.40;;;9.90;49.70;;;;;;5021116;28;20448;-41
2022/03/04 10:41:48;;;;;;;35.67;22.93;;;10.20;49.60;;;;;;5019109;28;20979;-41
2022/03/04 10:44:25;;;;;;;34.57;23.57;;;10.50;49.30;;;;;;4992217;28;20458;-41
2022/03/04 10:46:57;;;;;;;34.67;23.93;;;10.80;48.50;;;;;;5036989;28;20463;-41
2022/03/04 10:49:27;;;;;;;33.87;22.87;;;10.90;47.80;;;;;;5018494;28;20575;-41
2022/03/04 10:52:06;;;;;;;37.50;23.73;;;11.10;48.30;;;;;;5020605;28;20475;-42
2022/03/04 10:54:33;;;;;;;29.43;23.70;;;11.20;47.70;;;;;;5005031;28;20964;-41
2022/03/04 10:57:03;;;;;;;30.90;23.33;;;11.30;47.50;;;;;;5021069;28;21043;-42
2022/03/04 10:59:30;;;;;;;30.03;22.83;;;11.40;47.20;;;;;;5023240;28;20459;-41
2022/03/04 11:01:56;;;;;;;29.20;22.73;;;11.50;47.20;;;;;;5007521;28;20451;-42
2022/03/04 11:04:24;;;;;;;31.83;22.27;;;11.60;47.00;;;;;;5019069;28;20471;-42
2022/03/04 11:06:51;;;;;;;31.47;23.53;;;11.40;46.10;;;;;;5019626;28;20908;-41
2022/03/04 11:09:24;;;;;;;34.73;23.73;;;11.40;46.10;;;;;;5019072;28;20463;-42
2022/03/04 11:11:52;;;;;;;28.07;21.20;;;11.50;46.30;;;;;;5018609;28;20998;-42
2022/03/04 11:14:22;;;;;;;29.83;20.80;;;11.50;46.40;;;;;;5006572;28;20808;-42
2022/03/04 11:16:50;;;;;;;35.57;24.23;;;11.70;46.80;;;;;;5021338;28;20496;-42
2022/03/04 11:19:18;;;;;;;34.70;23.20;;;11.70;46.20;;;;;;5018966;28;20862;-42
2022/03/04 11:21:45;;;;;;;36.63;23.20;;;11.70;45.70;;;;;;5008591;28;20440;-42
2022/03/04 11:24:12;;;;;;;36.57;24.73;;;11.60;45.70;;;;;;5023754;28;20435;-42
2022/03/04 11:26:42;;;;;;;30.70;22.43;;;11.70;45.90;;;;;;5019175;28;20842;-42
2022/03/04 11:29:33;;;;;;;31.23;22.57;;;11.70;46.20;;;;;;5026437;28;20460;-42
2022/03/04 11:32:03;;;;;;;28.57;21.67;;;11.70;45.90;;;;;;5017329;28;20546;-42
2022/03/04 11:34:40;;;;;;;37.20;23.60;;;11.80;45.80;;;;;;5030647;28;20495;-42
2022/03/04 11:37:18;;;;;;;33.37;23.17;;;11.80;46.00;;;;;;5021977;28;20483;-42
2022/03/04 11:40:04;;;;;;;29.47;22.67;;;11.90;45.90;;;;;;5019074;28;20486;-42
2022/03/04 11:42:39;;;;;;;36.63;24.77;;;11.90;45.50;;;;;;5016468;28;20539;-42
2022/03/04 11:45:12;;;;;;;35.17;23.77;;;11.90;45.40;;;;;;5020259;28;20467;-42
2022/03/04 11:47:43;;;;;;;36.77;22.80;;;11.90;45.70;;;;;;5015520;28;20547;-42
2022/03/04 11:50:31;;;;;;;32.33;22.57;;;11.80;45.10;;;;;;5006475;28;20551;-42
2022/03/04 11:53:17;;;;;;;34.93;23.43;;;11.80;45.20;;;;;;5016417;28;20476;-42
2022/03/04 11:56:11;;;;;;;33.90;22.40;;;11.70;43.90;;;;;;5017307;28;20470;-42
2022/03/04 11:58:56;;;;;;;36.03;24.20;;;11.60;44.20;;;;;;5020195;28;20470;-42
2022/03/04 12:01:27;;;;;;;36.00;24.70;;;11.60;45.20;;;;;;5018385;28;20800;-42
2022/03/04 12:04:10;;;;;;;29.57;21.40;;;11.50;44.60;;;;;;5022305;28;21490;-42
2022/03/04 12:06:37;;;;;;;35.10;22.90;;;11.50;45.20;;;;;;5017165;28;20948;-42
2022/03/04 12:09:27;;;;;;;33.50;25.30;;;11.50;45.50;;;;;;5019766;28;20907;-42
2022/03/04 12:12:12;;;;;;;32.90;23.73;;;11.50;45.60;;;;;;5022126;28;20436;-42
2022/03/04 12:15:12;;;;;;;31.20;23.37;;;11.50;46.70;;;;;;5007456;28;20735;-42
2022/03/04 12:18:03;;;;;;;38.13;24.27;;;11.50;46.90;;;;;;5001862;28;20740;-42
2022/03/04 12:20:31;;;;;;;35.93;24.13;;;11.50;46.00;;;;;;5017764;28;20829;-42
2022/03/04 12:22:59;;;;;;;31.93;22.33;;;11.40;45.60;;;;;;5020506;28;20456;-42
2022/03/04 12:25:54;;;;;;;29.73;23.10;;;11.40;45.30;;;;;;5019278;28;20447;-42
2022/03/04 12:28:26;;;;;;;29.77;22.27;;;11.40;45.00;;;;;;5016253;28;21344;-42
2022/03/04 12:31:01;;;;;;;32.30;23.23;;;11.40;45.60;;;;;;5022881;28;20974;-42
2022/03/04 12:33:36;;;;;;;41.43;23.97;;;11.50;46.30;;;;;;5017994;28;20488;-42
2022/03/04 12:36:05;;;;;;;35.00;22.53;;;11.50;45.90;;;;;;5016241;28;20551;-42
2022/03/04 12:38:37;;;;;;;32.30;22.43;;;11.50;46.70;;;;;;5016859;28;20531;-42
2022/03/04 12:41:04;;;;;;;40.73;23.60;;;11.50;46.90;;;;;;5019524;28;20455;-42
2022/03/04 12:43:31;;;;;;;30.87;22.80;;;11.60;46.80;;;;;;5018739;28;20451;-42
2022/03/04 12:45:58;;;;;;;31.13;20.30;;;11.60;46.30;;;;;;5034907;28;20456;-42